Mazatlan Airport, Mexico

5:17 AM MDT on August 23, 2014 (GMT -0600)
Gen Rafael Buelna International | Change Station
CLOSE
Current Station
Airport
Location: Mazatlan Airport,
Elevation: 33 ft
Nearby Weather Stations

Elev 33 ft 23.16 °N, 106.27 °W | Updated 36 minutes ago

Overcast
Overcast
77 °F
Feels Like 77 °F
N
7
Wind Variable Wind from NE

Today
High -- | Low -- °F
--% Chance of Precip.
Yesterday
High -- | Low -- °F
Precip. -- in
6:44 AM 7:30 PM
Waning Crescent, 4% visible
Pressure 29.80 in
Visibility 10.0 miles
Clouds Scattered Clouds 2500 ft
Mostly Cloudy 7000 ft
Overcast 22000 ft
Dew Point 73 °F
Humidity 89%
Rainfall 0.00 in
Snow Depth Not available.
UV 0 out of 12
Pollen Not available.
Air Quality Not available.
Flu Activity Not available.
METAR MMMZ 231041Z 04006KT 10SM SCT025 BKN070 OVC220 25/23 A2980 RMK 8/477 HZY

More Conditions Fewer Conditions

Pressure 29.80 in
Visibility 10.0 miles
Clouds Scattered Clouds 2500 ft
Mostly Cloudy 7000 ft
Overcast 22000 ft
Dew Point 73 °F
Humidity 89%
Rainfall 0.00 in
Snow Depth Not available.
UV 0 out of 12
Pollen Not available.
Air Quality Not available.
Flu Activity Not available.
METAR MMMZ 231041Z 04006KT 10SM SCT025 BKN070 OVC220 25/23 A2980 RMK 8/477 HZY

More Conditions Fewer Conditions

10-Day Weather Forecast

Almanac

Astronomy

Aug. 23, 2014 Rise Set
Actual Time 6:44 AM MDT 7:30 PM MDT
Civil Twilight 6:21 AM MDT 7:53 PM MDT
Nautical Twilight 5:53 AM MDT 8:21 PM MDT
Astronomical Twilight 5:26 AM MDT 8:48 PM MDT
Moon 5:07 AM MDT 6:15 PM MDT
Length of Visible Light 13h 32m
Length of Day
12h 46m
Tomorrow will be 1m 14s shorter.
Waning Crescent, 4% of the Moon is Illuminated
Today
Waning Crescent
Aug 25
New
Sep 2
First Quarter
Sep 8
Full
Sep 15
Last Quarter

Yesterday's Extremes

Country Highs Country Lows

Community

WunderPhotos

Upload Photos

1,746,416 photos uploaded!

WunderBlogs® & News

By Dr. Jeff Masters
Director of Meteorology, Weather Underground
By Kari Strenfel
Meteorologist, Weather Underground
By Christopher C. Burt
Weather Historian, Weather Underground
August 23, 2014
August 23, 2014
August 23, 2014

Nearby

Snow Depth

Not available.

Earthquake Activity

City Distance Mag. Time & Date
No recent earthquake activity has been reported nearby.
Minimum magnitude displayed is 2.5.

Coastal Water Temperatures

Place Temperature
No Stations Reporting

Nearby Weather Stations